Time;durP1;ratioP1;P1;durP2;ratioP2;P2;SDS_P1;SDS_P2;PMS_P1;PMS_P2;Temp;Humidity;BMP_temperature;BMP_pressure;BME280_temperature;BME280_humidity;BME280_pressure;Samples;Min_cycle;Max_cycle;Signal;HPM_P1;HPM_P2
2021/09/30 00:00:06;;;;;;;2.78;1.40;;;;;;;;;;5051386;28;20527;-90
2021/09/30 00:02:31;;;;;;;6.95;1.60;;;;;;;;;;5050988;28;20487;-91
2021/09/30 00:04:56;;;;;;;7.07;1.75;;;;;;;;;;5050933;28;20028;-90
2021/09/30 00:07:22;;;;;;;4.90;2.03;;;;;;;;;;5050650;28;20031;-90
2021/09/30 00:09:48;;;;;;;6.85;2.40;;;;;;;;;;5085378;23;20037;-69
2021/09/30 00:12:19;;;;;;;7.20;1.90;;;;;;;;;;5064547;28;20098;-72
2021/09/30 00:14:51;;;;;;;6.80;1.90;;;;;;;;;;5069838;28;20028;-69
2021/09/30 00:34:01;;;;;;;11.52;2.15;;;;;;;;;;5069469;28;20097;-69
2021/09/30 00:41:44;;;;;;;5.07;1.77;;;;;;;;;;5069575;28;20491;-68
2021/09/30 00:54:52;;;;;;;10.77;3.33;;;;;;;;;;5069600;28;20028;-69
2021/09/30 01:33:33;;;;;;;4.30;1.90;;;;;;;;;;5069473;28;20591;-69
2021/09/30 02:20:04;;;;;;;6.47;1.98;;;;;;;;;;5063236;28;20434;-68
2021/09/30 02:58:32;;;;;;;5.78;2.60;;;;;;;;;;5071914;28;20111;-69
2021/09/30 03:01:08;;;;;;;6.95;2.50;;;;;;;;;;5071266;28;20392;-68
2021/09/30 03:03:35;;;;;;;10.88;2.08;;;;;;;;;;5061539;28;20366;-68
2021/09/30 03:06:00;;;;;;;15.45;2.10;;;;;;;;;;5066167;28;20025;-69
2021/09/30 03:08:26;;;;;;;9.60;2.45;;;;;;;;;;5065032;28;20055;-68
2021/09/30 03:10:53;;;;;;;7.00;2.22;;;;;;;;;;5069284;28;20126;-68
2021/09/30 03:13:19;;;;;;;7.25;2.13;;;;;;;;;;5069233;28;20103;-68
2021/09/30 03:15:53;;;;;;;3.45;1.75;;;;;;;;;;5068972;28;20066;-68
2021/09/30 03:23:28;;;;;;;9.80;3.05;;;;;;;;;;5059521;28;20047;-69
2021/09/30 03:25:54;;;;;;;7.45;2.38;;;;;;;;;;5067638;28;20021;-68
2021/09/30 03:28:21;;;;;;;10.20;2.40;;;;;;;;;;5069508;28;20554;-68
2021/09/30 03:30:47;;;;;;;8.52;2.40;;;;;;;;;;5065175;28;20035;-68
2021/09/30 03:33:13;;;;;;;13.60;2.28;;;;;;;;;;5067028;28;20017;-68
2021/09/30 03:35:39;;;;;;;7.57;2.20;;;;;;;;;;5070284;28;20013;-68
2021/09/30 03:38:05;;;;;;;13.00;2.60;;;;;;;;;;5070888;28;20093;-69
2021/09/30 03:40:30;;;;;;;8.50;2.40;;;;;;;;;;5069410;28;20452;-69
2021/09/30 03:42:55;;;;;;;7.82;2.75;;;;;;;;;;5070524;28;20060;-67
2021/09/30 03:45:21;;;;;;;11.38;2.67;;;;;;;;;;5070837;28;20023;-67
2021/09/30 03:47:46;;;;;;;6.22;2.38;;;;;;;;;;5069874;28;20032;-68
2021/09/30 03:50:33;;;;;;;9.18;2.95;;;;;;;;;;5070329;28;20101;-69
2021/09/30 03:53:10;;;;;;;6.38;2.35;;;;;;;;;;5069707;28;20036;-68
2021/09/30 04:00:32;;;;;;;7.25;2.22;;;;;;;;;;5070541;28;20019;-68
2021/09/30 04:02:57;;;;;;;14.25;2.67;;;;;;;;;;5070364;28;20025;-68
2021/09/30 04:05:22;;;;;;;8.70;2.40;;;;;;;;;;5064674;28;20389;-68
2021/09/30 04:07:48;;;;;;;9.23;2.40;;;;;;;;;;5069969;28;20274;-69
2021/09/30 04:10:13;;;;;;;12.65;3.10;;;;;;;;;;5070495;28;20047;-70
2021/09/30 04:12:38;;;;;;;7.97;2.67;;;;;;;;;;5069367;28;20461;-70
2021/09/30 04:15:04;;;;;;;7.85;4.20;;;;;;;;;;5070170;28;20020;-69
2021/09/30 04:17:29;;;;;;;9.02;3.13;;;;;;;;;;5070419;28;20040;-69
2021/09/30 04:19:54;;;;;;;12.38;3.88;;;;;;;;;;5069814;28;20016;-68
2021/09/30 04:22:19;;;;;;;20.30;3.30;;;;;;;;;;5070208;28;20028;-69
2021/09/30 04:24:47;;;;;;;9.57;2.95;;;;;;;;;;5070031;28;20024;-68
2021/09/30 04:27:12;;;;;;;8.68;2.88;;;;;;;;;;5069812;28;20017;-70
2021/09/30 04:29:37;;;;;;;9.65;3.03;;;;;;;;;;5069775;28;20031;-69
2021/09/30 04:32:03;;;;;;;10.15;2.80;;;;;;;;;;5069593;28;20044;-69
2021/09/30 04:34:28;;;;;;;15.00;3.33;;;;;;;;;;5069217;28;20051;-69
2021/09/30 04:36:53;;;;;;;15.68;2.88;;;;;;;;;;5069642;28;20031;-68
2021/09/30 04:39:18;;;;;;;8.63;2.65;;;;;;;;;;5070450;28;20074;-68
2021/09/30 04:41:44;;;;;;;6.78;2.55;;;;;;;;;;5069246;28;20488;-69
2021/09/30 04:44:10;;;;;;;11.15;3.17;;;;;;;;;;5070228;28;20385;-69
2021/09/30 04:46:36;;;;;;;7.22;2.63;;;;;;;;;;5069809;28;20074;-70
2021/09/30 04:49:01;;;;;;;14.27;2.75;;;;;;;;;;5069119;28;20028;-67
2021/09/30 04:51:26;;;;;;;8.02;2.90;;;;;;;;;;5069790;28;20020;-69
2021/09/30 04:53:51;;;;;;;8.18;2.28;;;;;;;;;;5064828;28;20017;-68
2021/09/30 04:56:16;;;;;;;11.68;2.72;;;;;;;;;;5063702;28;20023;-69
2021/09/30 04:58:42;;;;;;;12.23;3.00;;;;;;;;;;5067989;28;20025;-69
2021/09/30 05:01:07;;;;;;;6.78;2.88;;;;;;;;;;5068973;28;20027;-69
2021/09/30 05:03:32;;;;;;;8.30;2.80;;;;;;;;;;5069632;28;20069;-69
2021/09/30 05:05:58;;;;;;;16.45;3.30;;;;;;;;;;5071800;28;20048;-69
2021/09/30 05:08:23;;;;;;;10.18;3.00;;;;;;;;;;5072175;28;20107;-69
2021/09/30 05:10:50;;;;;;;14.55;3.58;;;;;;;;;;5068355;28;20032;-69
2021/09/30 05:13:22;;;;;;;13.43;3.60;;;;;;;;;;5065829;28;20025;-69
2021/09/30 05:15:47;;;;;;;8.05;2.65;;;;;;;;;;5064042;28;20085;-67
2021/09/30 05:18:13;;;;;;;9.35;3.50;;;;;;;;;;5066998;28;20116;-67
2021/09/30 05:20:38;;;;;;;9.80;3.22;;;;;;;;;;5070092;28;20028;-68
2021/09/30 05:23:04;;;;;;;11.80;3.63;;;;;;;;;;5070270;28;20186;-69
2021/09/30 05:25:29;;;;;;;9.75;3.67;;;;;;;;;;5068879;28;20023;-67
2021/09/30 05:27:55;;;;;;;4.32;2.38;;;;;;;;;;5070781;28;20059;-68
2021/09/30 05:30:20;;;;;;;21.60;3.30;;;;;;;;;;5067637;28;20024;-68
2021/09/30 05:32:46;;;;;;;14.52;2.90;;;;;;;;;;5068588;28;20506;-68
2021/09/30 05:35:11;;;;;;;10.18;3.05;;;;;;;;;;5065919;28;20110;-68
2021/09/30 05:37:36;;;;;;;7.22;2.75;;;;;;;;;;5065745;28;20024;-70
2021/09/30 05:40:02;;;;;;;10.38;3.40;;;;;;;;;;5060286;28;20021;-68
2021/09/30 05:42:29;;;;;;;14.93;3.30;;;;;;;;;;5068787;28;20388;-70
2021/09/30 05:44:54;;;;;;;9.13;3.10;;;;;;;;;;5067409;28;20020;-68
2021/09/30 05:47:19;;;;;;;6.78;2.55;;;;;;;;;;5070674;28;20035;-68
2021/09/30 05:49:44;;;;;;;6.60;2.35;;;;;;;;;;5081968;22;20040;-69
2021/09/30 05:52:10;;;;;;;5.95;2.80;;;;;;;;;;5067363;28;20025;-68
2021/09/30 05:54:35;;;;;;;11.30;3.10;;;;;;;;;;5071950;28;20034;-68
2021/09/30 05:57:00;;;;;;;10.48;2.90;;;;;;;;;;5073769;28;20012;-69
2021/09/30 05:59:25;;;;;;;9.73;2.85;;;;;;;;;;5074431;28;20086;-68
2021/09/30 06:12:22;;;;;;;14.20;2.88;;;;;;;;;;5059569;28;20082;-68
2021/09/30 06:14:49;;;;;;;13.02;2.58;;;;;;;;;;5071418;28;20021;-68
2021/09/30 06:17:14;;;;;;;9.05;3.72;;;;;;;;;;5071987;28;20059;-68
2021/09/30 06:19:39;;;;;;;9.63;2.67;;;;;;;;;;5067273;28;20036;-68
2021/09/30 06:22:06;;;;;;;8.23;2.67;;;;;;;;;;5061192;28;20031;-69
2021/09/30 06:24:32;;;;;;;15.27;2.85;;;;;;;;;;5068996;28;20531;-68
2021/09/30 06:26:57;;;;;;;16.92;3.60;;;;;;;;;;5073367;28;20055;-68
2021/09/30 06:29:22;;;;;;;11.03;2.73;;;;;;;;;;5073751;28;20062;-68
2021/09/30 06:31:48;;;;;;;7.07;2.90;;;;;;;;;;5068771;28;20283;-68
2021/09/30 06:34:13;;;;;;;22.80;3.00;;;;;;;;;;5062637;28;20013;-68
2021/09/30 06:36:38;;;;;;;17.27;3.22;;;;;;;;;;5053488;28;20024;-68
2021/09/30 06:39:04;;;;;;;5.63;2.47;;;;;;;;;;5072838;28;20017;-68
2021/09/30 06:41:29;;;;;;;8.35;2.20;;;;;;;;;;5067634;28;20100;-68
2021/09/30 06:43:54;;;;;;;7.45;2.22;;;;;;;;;;5057935;28;20071;-68
2021/09/30 06:46:20;;;;;;;11.88;2.90;;;;;;;;;;5054223;28;20050;-68
2021/09/30 06:48:45;;;;;;;10.10;2.70;;;;;;;;;;5067244;28;20037;-68
2021/09/30 06:51:10;;;;;;;8.63;2.78;;;;;;;;;;5053142;28;20017;-70
2021/09/30 06:53:36;;;;;;;6.70;2.10;;;;;;;;;;5052234;28;20485;-70
2021/09/30 06:56:07;;;;;;;7.25;2.70;;;;;;;;;;5051990;28;20109;-70
2021/09/30 06:58:34;;;;;;;6.57;2.30;;;;;;;;;;5064694;28;20012;-70
2021/09/30 07:01:00;;;;;;;14.45;2.38;;;;;;;;;;5071102;28;20016;-70
2021/09/30 07:03:27;;;;;;;7.30;2.08;;;;;;;;;;5068897;28;20067;-70
2021/09/30 07:05:52;;;;;;;18.63;2.30;;;;;;;;;;5052045;28;20021;-70
2021/09/30 07:08:17;;;;;;;8.53;2.47;;;;;;;;;;5069710;28;20020;-70
2021/09/30 07:10:42;;;;;;;7.95;2.28;;;;;;;;;;5072284;28;20287;-70
2021/09/30 07:13:08;;;;;;;13.60;2.03;;;;;;;;;;5071891;28;20115;-71
2021/09/30 07:15:33;;;;;;;7.82;2.10;;;;;;;;;;5072017;28;20305;-70
2021/09/30 07:17:58;;;;;;;14.48;2.35;;;;;;;;;;5067273;28;20025;-71
2021/09/30 07:20:23;;;;;;;17.08;2.55;;;;;;;;;;5067526;28;20103;-71
2021/09/30 07:22:49;;;;;;;10.57;2.53;;;;;;;;;;5059948;28;20397;-71
2021/09/30 07:25:14;;;;;;;6.80;2.17;;;;;;;;;;5051810;28;20033;-71
2021/09/30 07:27:39;;;;;;;11.43;2.60;;;;;;;;;;5070103;28;20086;-70
2021/09/30 07:30:05;;;;;;;9.30;2.75;;;;;;;;;;5072072;28;20384;-70
2021/09/30 07:32:30;;;;;;;7.28;2.35;;;;;;;;;;5066880;28;20029;-71
2021/09/30 07:34:55;;;;;;;8.63;2.30;;;;;;;;;;5055948;28;20013;-71
2021/09/30 07:37:21;;;;;;;11.77;2.70;;;;;;;;;;5061413;28;20266;-71
2021/09/30 07:39:46;;;;;;;14.00;3.67;;;;;;;;;;5071527;28;20076;-71
2021/09/30 07:42:11;;;;;;;14.88;2.47;;;;;;;;;;5071337;28;20031;-71
2021/09/30 07:44:37;;;;;;;8.15;2.63;;;;;;;;;;5071343;28;20030;-71
2021/09/30 07:47:02;;;;;;;9.25;2.17;;;;;;;;;;5070976;28;20017;-71
2021/09/30 07:49:27;;;;;;;6.95;2.10;;;;;;;;;;5069432;28;20017;-71
2021/09/30 07:51:52;;;;;;;12.60;2.47;;;;;;;;;;5063610;28;20384;-71
2021/09/30 07:54:17;;;;;;;21.73;2.50;;;;;;;;;;5051318;28;20264;-71
2021/09/30 07:56:43;;;;;;;15.83;2.97;;;;;;;;;;5054561;28;20350;-72
2021/09/30 07:59:08;;;;;;;10.98;2.47;;;;;;;;;;5064708;28;20251;-71
2021/09/30 08:01:33;;;;;;;6.43;1.95;;;;;;;;;;5051457;28;20465;-71
2021/09/30 08:03:59;;;;;;;9.83;2.17;;;;;;;;;;5050845;28;20031;-70
2021/09/30 08:06:25;;;;;;;10.57;2.15;;;;;;;;;;5055927;28;20266;-71
2021/09/30 08:08:51;;;;;;;12.27;2.40;;;;;;;;;;5071111;28;20016;-71
2021/09/30 08:11:16;;;;;;;10.52;2.58;;;;;;;;;;5070764;28;20374;-73
2021/09/30 08:13:41;;;;;;;9.33;2.57;;;;;;;;;;5070696;28;20028;-71
2021/09/30 08:16:07;;;;;;;12.50;2.13;;;;;;;;;;5070825;28;20437;-71
2021/09/30 08:18:32;;;;;;;11.18;2.50;;;;;;;;;;5064313;28;20334;-71
2021/09/30 08:20:58;;;;;;;15.60;2.55;;;;;;;;;;5055412;28;20025;-71
2021/09/30 08:23:24;;;;;;;13.82;2.78;;;;;;;;;;5055689;28;20020;-71
2021/09/30 08:25:50;;;;;;;9.75;2.53;;;;;;;;;;5070973;28;20445;-71
2021/09/30 08:28:17;;;;;;;10.57;2.58;;;;;;;;;;5070108;28;20021;-71
2021/09/30 08:30:42;;;;;;;11.23;2.13;;;;;;;;;;5068674;28;20473;-72
2021/09/30 08:33:08;;;;;;;13.13;2.75;;;;;;;;;;5065385;28;20057;-72
2021/09/30 08:35:34;;;;;;;5.03;2.05;;;;;;;;;;5053764;28;20009;-71
2021/09/30 08:37:59;;;;;;;13.57;2.92;;;;;;;;;;5063241;28;20025;-71
2021/09/30 08:40:24;;;;;;;10.82;2.15;;;;;;;;;;5071166;28;20052;-71
2021/09/30 08:42:49;;;;;;;13.60;2.30;;;;;;;;;;5071206;28;20091;-72
2021/09/30 08:45:16;;;;;;;8.55;2.75;;;;;;;;;;5070504;28;20271;-71
2021/09/30 08:47:44;;;;;;;8.32;1.80;;;;;;;;;;5067297;28;20071;-71
2021/09/30 08:50:10;;;;;;;10.75;2.58;;;;;;;;;;5060760;28;20032;-71
2021/09/30 08:52:38;;;;;;;19.65;4.30;;;;;;;;;;5050402;28;20025;-71
2021/09/30 08:55:04;;;;;;;12.23;2.55;;;;;;;;;;5050455;28;20036;-71
2021/09/30 08:57:31;;;;;;;12.80;2.05;;;;;;;;;;5057907;28;20481;-71
2021/09/30 09:00:15;;;;;;;7.70;1.95;;;;;;;;;;5070278;28;20095;-71
2021/09/30 09:02:48;;;;;;;10.70;2.35;;;;;;;;;;5070007;28;20089;-71
2021/09/30 09:05:14;;;;;;;8.85;2.00;;;;;;;;;;5070296;28;20016;-71
2021/09/30 09:07:39;;;;;;;10.07;1.92;;;;;;;;;;5068670;28;20081;-71
2021/09/30 09:10:06;;;;;;;12.63;1.88;;;;;;;;;;5061460;28;20024;-70
2021/09/30 09:12:32;;;;;;;11.63;2.45;;;;;;;;;;5050568;28;20017;-71
2021/09/30 09:14:58;;;;;;;8.80;1.92;;;;;;;;;;5059615;28;20016;-71
2021/09/30 09:17:23;;;;;;;12.18;1.83;;;;;;;;;;5070158;28;20020;-71
2021/09/30 09:19:53;;;;;;;5.13;1.83;;;;;;;;;;5070275;28;20070;-71
2021/09/30 09:22:18;;;;;;;11.32;1.60;;;;;;;;;;5065534;28;20028;-71
2021/09/30 09:25:02;;;;;;;5.97;1.50;;;;;;;;;;5059721;28;20077;-72
2021/09/30 09:27:42;;;;;;;12.82;2.13;;;;;;;;;;5059640;28;20372;-72
2021/09/30 09:30:22;;;;;;;9.85;2.60;;;;;;;;;;5058650;28;20488;-71
2021/09/30 09:33:06;;;;;;;7.35;1.48;;;;;;;;;;5064892;28;20025;-71
2021/09/30 09:35:43;;;;;;;11.27;2.72;;;;;;;;;;5062968;28;20020;-73
2021/09/30 09:38:10;;;;;;;7.55;2.08;;;;;;;;;;5070313;28;20050;-72
2021/09/30 09:40:35;;;;;;;12.77;1.88;;;;;;;;;;5070653;28;20477;-72
2021/09/30 09:43:02;;;;;;;9.75;2.13;;;;;;;;;;5069553;28;20028;-72
2021/09/30 09:45:27;;;;;;;10.88;2.20;;;;;;;;;;5069998;28;20024;-72
2021/09/30 09:47:52;;;;;;;10.15;1.88;;;;;;;;;;5069733;28;20361;-72
2021/09/30 09:50:19;;;;;;;9.37;1.67;;;;;;;;;;5069881;28;20483;-72
2021/09/30 09:52:58;;;;;;;9.20;1.50;;;;;;;;;;5067759;28;20640;-72
2021/09/30 09:55:23;;;;;;;9.30;1.77;;;;;;;;;;5073424;28;20020;-72
2021/09/30 09:57:58;;;;;;;9.47;1.80;;;;;;;;;;5073680;28;20070;-72
2021/09/30 10:00:23;;;;;;;7.45;1.52;;;;;;;;;;5073792;28;20023;-72
2021/09/30 10:02:51;;;;;;;7.82;1.60;;;;;;;;;;5073275;28;20024;-72
2021/09/30 10:05:16;;;;;;;10.95;2.55;;;;;;;;;;5072947;28;20031;-72
2021/09/30 10:07:42;;;;;;;14.55;1.85;;;;;;;;;;5073320;28;20024;-72
2021/09/30 10:10:07;;;;;;;6.43;1.37;;;;;;;;;;5072926;28;20427;-72
2021/09/30 10:12:32;;;;;;;9.40;1.83;;;;;;;;;;5072900;28;20301;-71
2021/09/30 10:14:57;;;;;;;8.03;1.83;;;;;;;;;;5068307;28;20036;-72
2021/09/30 10:17:23;;;;;;;6.40;2.10;;;;;;;;;;5058526;28;20294;-72
2021/09/30 10:19:48;;;;;;;11.40;2.35;;;;;;;;;;5053344;28;20034;-72
2021/09/30 10:22:14;;;;;;;12.05;2.20;;;;;;;;;;5055932;28;20034;-72
2021/09/30 10:24:39;;;;;;;6.27;1.47;;;;;;;;;;5072898;28;20145;-71
2021/09/30 10:27:06;;;;;;;11.07;2.03;;;;;;;;;;5072461;28;20274;-72
2021/09/30 10:29:39;;;;;;;4.45;1.20;;;;;;;;;;5072824;28;20150;-72
2021/09/30 10:32:05;;;;;;;10.98;1.52;;;;;;;;;;5067653;28;20028;-72
2021/09/30 10:34:32;;;;;;;10.05;1.42;;;;;;;;;;5065150;28;20159;-72
2021/09/30 10:37:15;;;;;;;7.65;1.30;;;;;;;;;;5072728;28;20044;-72
2021/09/30 10:39:42;;;;;;;8.07;1.92;;;;;;;;;;5059921;28;20029;-72
2021/09/30 10:42:08;;;;;;;7.80;1.52;;;;;;;;;;5072191;28;20042;-72
2021/09/30 10:44:34;;;;;;;10.30;1.58;;;;;;;;;;5072378;28;20028;-72
2021/09/30 10:47:00;;;;;;;6.22;1.08;;;;;;;;;;5072578;28;20028;-72
2021/09/30 10:49:42;;;;;;;8.60;1.70;;;;;;;;;;5072237;28;20036;-72
2021/09/30 10:52:24;;;;;;;7.57;1.60;;;;;;;;;;5067539;28;20021;-72
2021/09/30 10:55:11;;;;;;;5.20;2.13;;;;;;;;;;5065043;28;20013;-72
2021/09/30 10:57:41;;;;;;;8.32;3.15;;;;;;;;;;5069976;28;20021;-71
2021/09/30 11:00:19;;;;;;;10.07;1.52;;;;;;;;;;5072052;28;20381;-72
2021/09/30 11:02:59;;;;;;;9.57;1.60;;;;;;;;;;5071419;28;20114;-72
2021/09/30 11:05:24;;;;;;;14.80;1.98;;;;;;;;;;5062927;28;20017;-72
2021/09/30 11:08:08;;;;;;;10.37;1.53;;;;;;;;;;5068455;28;20028;-72
2021/09/30 11:10:33;;;;;;;9.25;1.50;;;;;;;;;;5072076;28;20262;-72
2021/09/30 11:13:15;;;;;;;4.00;0.97;;;;;;;;;;5071606;28;20082;-72
2021/09/30 11:15:59;;;;;;;9.75;1.50;;;;;;;;;;5072194;28;20250;-72
2021/09/30 11:18:36;;;;;;;17.00;1.83;;;;;;;;;;5071205;28;20020;-72
2021/09/30 11:21:01;;;;;;;4.78;1.00;;;;;;;;;;5071697;28;20013;-72
2021/09/30 11:23:45;;;;;;;7.27;1.20;;;;;;;;;;5071162;28;20012;-72
2021/09/30 11:26:11;;;;;;;12.82;1.50;;;;;;;;;;5063023;28;20256;-72
2021/09/30 11:28:36;;;;;;;5.00;1.02;;;;;;;;;;5071722;28;20038;-72
2021/09/30 11:31:20;;;;;;;7.97;1.45;;;;;;;;;;5069271;28;20556;-72
2021/09/30 11:33:46;;;;;;;7.68;1.90;;;;;;;;;;5062282;28;20017;-72
2021/09/30 11:36:12;;;;;;;9.35;1.23;;;;;;;;;;5054284;28;20052;-72
2021/09/30 11:38:38;;;;;;;9.02;1.50;;;;;;;;;;5063495;28;20048;-72
2021/09/30 11:41:04;;;;;;;7.22;1.08;;;;;;;;;;5071328;28;20066;-72
2021/09/30 11:43:29;;;;;;;7.80;1.33;;;;;;;;;;5070889;28;20524;-72
2021/09/30 11:45:55;;;;;;;7.20;1.60;;;;;;;;;;5071229;28;20099;-72
2021/09/30 11:48:20;;;;;;;5.47;1.75;;;;;;;;;;5095310;22;20052;-68
2021/09/30 11:50:54;;;;;;;10.50;1.40;;;;;;;;;;5090146;28;20087;-69
2021/09/30 11:53:19;;;;;;;8.88;1.60;;;;;;;;;;5091084;28;20796;-69
2021/09/30 11:55:45;;;;;;;12.10;0.95;;;;;;;;;;5085811;28;20099;-70
2021/09/30 11:58:12;;;;;;;4.70;1.30;;;;;;;;;;5091068;28;20111;-69
2021/09/30 12:00:40;;;;;;;36.97;5.13;;;;;;;;;;5091389;28;20095;-70
2021/09/30 12:03:06;;;;;;;7.57;1.20;;;;;;;;;;5090863;28;20094;-70
2021/09/30 12:05:35;;;;;;;7.10;1.25;;;;;;;;;;5090798;28;20107;-69
2021/09/30 12:08:03;;;;;;;6.30;1.50;;;;;;;;;;5090941;28;20258;-69
2021/09/30 12:10:29;;;;;;;14.70;1.65;;;;;;;;;;5087765;28;20039;-69
2021/09/30 12:12:55;;;;;;;10.98;1.73;;;;;;;;;;5090046;28;20456;-69
2021/09/30 12:15:20;;;;;;;7.70;1.50;;;;;;;;;;5088288;28;20016;-69
2021/09/30 12:17:45;;;;;;;7.28;1.40;;;;;;;;;;5090752;28;20020;-69
2021/09/30 12:20:12;;;;;;;8.15;1.90;;;;;;;;;;5090987;28;20103;-69
2021/09/30 12:22:39;;;;;;;9.85;1.40;;;;;;;;;;5090322;28;20020;-69
2021/09/30 12:25:09;;;;;;;5.97;1.33;;;;;;;;;;5090565;28;20031;-69
2021/09/30 12:27:36;;;;;;;4.68;1.50;;;;;;;;;;5090548;28;20035;-69
2021/09/30 12:30:07;;;;;;;6.13;1.60;;;;;;;;;;5090745;28;20024;-69
2021/09/30 12:32:34;;;;;;;5.57;1.27;;;;;;;;;;5085139;28;20020;-69
2021/09/30 12:35:00;;;;;;;13.80;1.58;;;;;;;;;;5090297;28;20166;-69
2021/09/30 12:37:29;;;;;;;11.73;1.42;;;;;;;;;;5090504;28;20020;-69
2021/09/30 12:39:58;;;;;;;10.77;1.52;;;;;;;;;;5090501;28;20142;-69
2021/09/30 12:42:23;;;;;;;7.18;1.50;;;;;;;;;;5088412;28;20023;-69
2021/09/30 12:44:49;;;;;;;8.73;1.83;;;;;;;;;;5089510;28;20463;-69
2021/09/30 12:47:28;;;;;;;12.48;1.42;;;;;;;;;;5090140;28;20270;-69
2021/09/30 12:49:57;;;;;;;10.95;1.65;;;;;;;;;;5090411;28;20035;-69
2021/09/30 12:52:22;;;;;;;7.30;1.80;;;;;;;;;;5079738;28;20491;-69
2021/09/30 12:54:47;;;;;;;6.13;1.33;;;;;;;;;;5079040;28;20096;-69
2021/09/30 12:57:13;;;;;;;7.13;1.60;;;;;;;;;;5092064;28;20411;-70
2021/09/30 12:59:38;;;;;;;9.20;1.77;;;;;;;;;;5110548;28;20094;-69
2021/09/30 13:02:04;;;;;;;6.18;1.65;;;;;;;;;;5110585;28;20799;-69
2021/09/30 13:04:29;;;;;;;6.72;1.42;;;;;;;;;;5104756;28;20085;-70
2021/09/30 13:07:01;;;;;;;11.45;1.58;;;;;;;;;;5090563;28;20047;-69
2021/09/30 13:09:29;;;;;;;8.82;1.52;;;;;;;;;;5090052;28;20012;-69
2021/09/30 13:11:58;;;;;;;9.30;1.10;;;;;;;;;;5089991;28;20020;-69
2021/09/30 13:14:29;;;;;;;5.20;1.08;;;;;;;;;;5074170;28;20070;-69
2021/09/30 13:16:54;;;;;;;6.32;1.50;;;;;;;;;;5085123;28;20012;-69
2021/09/30 13:19:20;;;;;;;13.27;1.27;;;;;;;;;;5100172;28;20020;-69
2021/09/30 13:22:03;;;;;;;6.38;1.17;;;;;;;;;;5110564;28;20034;-69
2021/09/30 13:24:29;;;;;;;8.88;1.17;;;;;;;;;;5089756;28;20480;-68
2021/09/30 13:26:54;;;;;;;6.65;0.90;;;;;;;;;;5094295;28;20028;-68
2021/09/30 13:29:19;;;;;;;4.45;1.10;;;;;;;;;;5093957;28;20380;-68
2021/09/30 13:31:45;;;;;;;7.45;1.63;;;;;;;;;;5095812;28;20031;-69
2021/09/30 13:34:10;;;;;;;8.13;1.40;;;;;;;;;;5093421;28;20065;-69
2021/09/30 13:36:35;;;;;;;8.88;1.98;;;;;;;;;;5093964;28;20044;-69
2021/09/30 13:39:00;;;;;;;8.40;1.20;;;;;;;;;;5094145;28;20040;-69
2021/09/30 13:41:25;;;;;;;10.15;1.10;;;;;;;;;;5094324;28;20307;-69
2021/09/30 13:43:51;;;;;;;10.03;1.47;;;;;;;;;;5094034;28;20467;-69
2021/09/30 13:46:16;;;;;;;6.28;1.15;;;;;;;;;;5092800;28;20269;-69
2021/09/30 13:48:41;;;;;;;4.57;0.85;;;;;;;;;;5093581;28;20354;-69
2021/09/30 13:51:07;;;;;;;9.20;1.07;;;;;;;;;;5080640;28;20034;-69
2021/09/30 13:53:32;;;;;;;6.57;1.10;;;;;;;;;;5073451;28;20259;-69
2021/09/30 13:55:57;;;;;;;8.87;1.37;;;;;;;;;;5092743;28;20525;-69
2021/09/30 13:58:22;;;;;;;2.40;1.03;;;;;;;;;;5093105;28;20264;-69
2021/09/30 14:00:47;;;;;;;9.32;1.33;;;;;;;;;;5093782;28;20677;-69
2021/09/30 14:03:12;;;;;;;8.80;0.90;;;;;;;;;;5093345;28;20020;-69
2021/09/30 14:05:38;;;;;;;4.87;1.27;;;;;;;;;;5093003;28;20281;-69
2021/09/30 14:08:03;;;;;;;7.68;0.95;;;;;;;;;;5093449;28;20734;-69
2021/09/30 14:10:29;;;;;;;6.50;1.33;;;;;;;;;;5093225;28;20012;-69
2021/09/30 14:12:54;;;;;;;6.90;1.30;;;;;;;;;;5092999;28;20016;-69
2021/09/30 14:15:19;;;;;;;9.73;1.40;;;;;;;;;;5092692;28;20032;-69
2021/09/30 14:17:45;;;;;;;8.57;1.40;;;;;;;;;;5093319;28;20020;-69
2021/09/30 14:20:10;;;;;;;9.65;1.50;;;;;;;;;;5093090;28;20265;-69
2021/09/30 14:22:36;;;;;;;3.75;1.10;;;;;;;;;;5092825;28;20039;-69
2021/09/30 14:25:01;;;;;;;5.05;1.00;;;;;;;;;;5092961;28;20016;-69
2021/09/30 14:27:28;;;;;;;7.28;1.52;;;;;;;;;;5092731;28;20436;-69
2021/09/30 14:29:54;;;;;;;4.78;1.25;;;;;;;;;;5093143;28;20023;-69
2021/09/30 14:32:19;;;;;;;5.43;2.17;;;;;;;;;;5091915;28;20387;-69
2021/09/30 14:34:44;;;;;;;5.18;1.17;;;;;;;;;;5091480;28;20020;-69
2021/09/30 14:37:09;;;;;;;5.07;0.98;;;;;;;;;;5080413;28;20019;-69
2021/09/30 14:39:35;;;;;;;12.95;1.45;;;;;;;;;;5092626;28;20012;-69
2021/09/30 14:42:00;;;;;;;7.53;1.23;;;;;;;;;;5092658;28;20024;-69
2021/09/30 14:44:25;;;;;;;5.40;1.67;;;;;;;;;;5092330;28;20028;-69
2021/09/30 14:46:52;;;;;;;5.45;1.02;;;;;;;;;;5092824;28;20024;-69
2021/09/30 14:49:17;;;;;;;14.55;1.50;;;;;;;;;;5092630;28;20028;-69
2021/09/30 14:51:42;;;;;;;22.70;3.10;;;;;;;;;;5092794;28;20429;-69
2021/09/30 14:54:07;;;;;;;12.30;3.17;;;;;;;;;;5092093;28;20258;-69
2021/09/30 14:56:33;;;;;;;8.25;1.65;;;;;;;;;;5091766;28;20020;-69
2021/09/30 14:58:58;;;;;;;6.38;1.33;;;;;;;;;;5092459;28;20027;-69
2021/09/30 15:01:23;;;;;;;6.57;0.70;;;;;;;;;;5091523;28;20024;-69
2021/09/30 15:03:49;;;;;;;7.45;1.10;;;;;;;;;;5092244;28;20300;-69
2021/09/30 15:06:14;;;;;;;3.40;0.70;;;;;;;;;;5092021;28;20016;-69
2021/09/30 15:08:39;;;;;;;5.15;1.23;;;;;;;;;;5092279;28;20027;-69
2021/09/30 15:11:05;;;;;;;10.85;1.48;;;;;;;;;;5091036;28;20095;-69
2021/09/30 15:13:30;;;;;;;6.68;1.20;;;;;;;;;;5091750;28;20077;-69
2021/09/30 15:15:57;;;;;;;4.95;1.33;;;;;;;;;;5088465;28;20016;-69
2021/09/30 15:19:09;;;;;;;9.73;1.27;;;;;;;;;;5091553;28;20472;-69
2021/09/30 15:21:21;;;;;;;6.85;1.60;;;;;;;;;;5084468;28;20227;-69
2021/09/30 15:23:46;;;;;;;2.70;0.68;;;;;;;;;;5091726;28;20023;-69
2021/09/30 15:26:13;;;;;;;6.72;1.10;;;;;;;;;;5091806;28;20020;-69
2021/09/30 15:28:38;;;;;;;6.88;1.27;;;;;;;;;;5105034;28;20016;-69
2021/09/30 15:31:04;;;;;;;7.50;0.77;;;;;;;;;;5091850;28;20064;-69
2021/09/30 15:33:30;;;;;;;7.40;1.05;;;;;;;;;;5092864;28;20046;-69
2021/09/30 15:35:56;;;;;;;9.65;0.98;;;;;;;;;;5086534;28;20028;-69
2021/09/30 15:38:26;;;;;;;7.05;1.45;;;;;;;;;;5090294;28;20047;-69
2021/09/30 15:40:51;;;;;;;5.50;1.33;;;;;;;;;;5091807;28;20012;-69
2021/09/30 15:43:16;;;;;;;6.53;1.00;;;;;;;;;;5091382;28;20027;-69
2021/09/30 15:45:42;;;;;;;4.53;1.03;;;;;;;;;;5091101;28;20040;-69
2021/09/30 15:48:07;;;;;;;4.03;0.93;;;;;;;;;;5091140;28;20262;-69
2021/09/30 15:50:33;;;;;;;8.43;1.02;;;;;;;;;;5090429;28;20065;-69
2021/09/30 15:52:58;;;;;;;4.67;0.77;;;;;;;;;;5090568;28;20103;-69
2021/09/30 15:55:23;;;;;;;2.30;0.73;;;;;;;;;;5090769;28;20618;-69
2021/09/30 15:57:48;;;;;;;5.17;1.13;;;;;;;;;;5090980;28;20085;-69
2021/09/30 16:00:14;;;;;;;5.07;1.15;;;;;;;;;;5091260;28;20595;-69
2021/09/30 16:02:39;;;;;;;7.38;1.50;;;;;;;;;;5090763;28;20048;-69
2021/09/30 16:05:05;;;;;;;7.40;1.35;;;;;;;;;;5091257;28;20379;-69
2021/09/30 16:07:31;;;;;;;4.57;0.60;;;;;;;;;;5091348;28;20027;-69
2021/09/30 16:09:56;;;;;;;10.38;1.58;;;;;;;;;;5091160;28;20099;-69
2021/09/30 16:12:21;;;;;;;4.43;1.27;;;;;;;;;;5090672;28;20035;-70
2021/09/30 16:14:49;;;;;;;3.63;1.20;;;;;;;;;;5090921;28;20054;-69
2021/09/30 16:17:15;;;;;;;2.20;0.73;;;;;;;;;;5090997;28;20061;-70
2021/09/30 16:19:40;;;;;;;4.28;1.35;;;;;;;;;;5090462;28;20382;-70
2021/09/30 16:22:05;;;;;;;16.23;2.33;;;;;;;;;;5090799;28;20103;-70
2021/09/30 16:24:30;;;;;;;2.60;1.13;;;;;;;;;;5090397;28;20250;-70
2021/09/30 16:26:56;;;;;;;7.45;2.67;;;;;;;;;;5090760;28;20024;-70
2021/09/30 16:29:21;;;;;;;7.68;1.65;;;;;;;;;;5090559;28;20024;-69
2021/09/30 16:31:47;;;;;;;5.57;1.35;;;;;;;;;;5092378;28;20051;-69
2021/09/30 16:34:12;;;;;;;5.35;1.55;;;;;;;;;;5085855;28;20523;-70
2021/09/30 16:36:40;;;;;;;14.67;1.70;;;;;;;;;;5089830;28;20020;-70
2021/09/30 16:39:05;;;;;;;3.95;1.20;;;;;;;;;;5090733;28;20596;-70
2021/09/30 16:41:30;;;;;;;7.97;1.20;;;;;;;;;;5090213;28;20081;-70
2021/09/30 16:43:55;;;;;;;7.25;1.20;;;;;;;;;;5090413;28;20254;-70
2021/09/30 16:46:21;;;;;;;26.08;2.65;;;;;;;;;;5090093;28;20035;-70
2021/09/30 16:48:47;;;;;;;4.68;1.10;;;;;;;;;;5090002;28;20115;-70
2021/09/30 16:51:13;;;;;;;10.18;1.08;;;;;;;;;;5090222;28;20024;-70
2021/09/30 16:53:38;;;;;;;3.77;0.83;;;;;;;;;;5089965;28;20777;-70
2021/09/30 16:56:03;;;;;;;4.80;1.25;;;;;;;;;;5088865;28;20261;-70
2021/09/30 16:58:28;;;;;;;8.88;1.23;;;;;;;;;;5082532;28;20020;-70
2021/09/30 17:00:53;;;;;;;8.33;1.70;;;;;;;;;;5095543;28;20032;-70
2021/09/30 17:03:19;;;;;;;5.07;1.17;;;;;;;;;;5096838;28;20315;-70
2021/09/30 17:05:44;;;;;;;7.15;1.05;;;;;;;;;;5097177;28;20254;-69
2021/09/30 17:08:09;;;;;;;4.68;1.10;;;;;;;;;;5096918;28;20434;-70
2021/09/30 17:10:35;;;;;;;5.43;1.40;;;;;;;;;;5097107;28;20384;-70
2021/09/30 17:13:00;;;;;;;4.28;1.40;;;;;;;;;;5096977;28;20110;-69
2021/09/30 17:15:25;;;;;;;7.38;1.30;;;;;;;;;;5097232;28;20042;-70
2021/09/30 17:17:51;;;;;;;7.43;1.33;;;;;;;;;;5096778;28;20417;-70
2021/09/30 17:20:18;;;;;;;7.60;1.88;;;;;;;;;;5096285;28;20726;-69
2021/09/30 17:22:45;;;;;;;9.15;1.73;;;;;;;;;;5096939;28;20536;-69
2021/09/30 17:25:10;;;;;;;6.60;1.50;;;;;;;;;;5097032;28;20034;-68